createdAt,value
2018-09-10T00:00:35.912Z,3.50
2018-09-10T00:03:04.614Z,3.10
2018-09-10T00:05:33.252Z,3.33
2018-09-10T00:08:01.892Z,3.20
2018-09-10T00:10:30.688Z,3.23
2018-09-10T00:12:59.356Z,3.10
2018-09-10T00:15:27.994Z,3.10
2018-09-10T00:17:58.334Z,3.73
2018-09-10T00:20:26.952Z,2.90
2018-09-10T00:22:55.633Z,3.40
2018-09-10T00:25:24.266Z,3.40
2018-09-10T00:27:53.730Z,3.33
2018-09-10T00:30:22.418Z,3.20
2018-09-10T00:32:51.213Z,3.53
2018-09-10T00:35:19.875Z,3.07
2018-09-10T00:37:50.349Z,3.17
2018-09-10T00:40:19.007Z,3.30
2018-09-10T00:42:47.645Z,3.50
2018-09-10T00:45:16.312Z,3.50
2018-09-10T00:47:45.031Z,3.30
2018-09-10T00:50:13.709Z,3.67
2018-09-10T00:52:42.397Z,3.33
2018-09-10T00:55:11.081Z,3.00
2018-09-10T00:57:39.810Z,3.40
2018-09-10T01:00:08.446Z,3.30
2018-09-10T01:02:37.113Z,3.30
2018-09-10T01:05:05.771Z,3.30
2018-09-10T01:07:34.455Z,3.10
2018-09-10T01:10:03.119Z,3.50
2018-09-10T01:12:31.784Z,4.10
2018-09-10T01:15:00.411Z,3.10
2018-09-10T01:17:29.204Z,3.73
2018-09-10T01:19:57.895Z,3.90
2018-09-10T01:22:26.563Z,4.07
2018-09-10T01:24:55.218Z,3.47
2018-09-10T01:27:23.845Z,3.83
2018-09-10T01:29:52.515Z,3.40
2018-09-10T01:32:21.171Z,3.40
2018-09-10T01:34:55.310Z,3.13
2018-09-10T01:37:23.971Z,3.80
2018-09-10T01:39:52.639Z,3.60
2018-09-10T01:42:21.281Z,3.20
2018-09-10T01:44:49.950Z,3.20
2018-09-10T01:47:18.607Z,3.47
2018-09-10T01:49:47.252Z,4.13
2018-09-10T01:52:15.911Z,3.43
2018-09-10T01:54:44.576Z,3.33
2018-09-10T01:57:13.228Z,3.50
2018-09-10T01:59:41.874Z,3.13
2018-09-10T02:02:10.564Z,3.47
2018-09-10T02:04:39.224Z,5.10
2018-09-10T02:07:07.916Z,3.40
2018-09-10T02:09:36.548Z,3.23
2018-09-10T02:12:05.200Z,3.30
2018-09-10T02:14:33.839Z,3.10
2018-09-10T02:17:02.556Z,3.07
2018-09-10T02:19:31.247Z,3.20
2018-09-10T02:21:59.906Z,3.33
2018-09-10T02:24:28.545Z,3.20
2018-09-10T02:29:32.245Z,3.40
2018-09-10T02:32:00.893Z,3.30
2018-09-10T02:34:29.575Z,3.10
2018-09-10T02:36:58.259Z,3.60
2018-09-10T02:39:26.911Z,3.57
2018-09-10T02:41:55.627Z,3.53
2018-09-10T02:44:24.296Z,3.27
2018-09-10T02:46:52.951Z,3.40
2018-09-10T02:49:21.592Z,3.33
2018-09-10T02:51:50.257Z,3.20
2018-09-10T02:54:18.902Z,3.60
2018-09-10T02:56:47.551Z,3.50
2018-09-10T02:59:16.298Z,3.40
2018-09-10T03:01:45.304Z,3.60
2018-09-10T03:04:14.116Z,3.43
2018-09-10T03:06:42.789Z,3.30
2018-09-10T03:09:11.468Z,3.40
2018-09-10T03:11:40.121Z,3.43
2018-09-10T03:14:09.124Z,3.30
2018-09-10T03:16:37.936Z,3.43
2018-09-10T03:19:06.616Z,3.27
2018-09-10T03:21:35.284Z,4.27
2018-09-10T03:24:04.005Z,3.20
2018-09-10T03:26:32.664Z,3.47
2018-09-10T03:29:01.316Z,3.23
2018-09-10T03:31:29.977Z,3.77
2018-09-10T03:33:58.629Z,3.67
2018-09-10T03:36:27.267Z,3.70
2018-09-10T03:38:55.938Z,3.53
2018-09-10T03:41:24.604Z,3.67
2018-09-10T03:43:53.272Z,3.90
2018-09-10T03:46:21.932Z,3.50
2018-09-10T03:48:50.612Z,3.83
2018-09-10T03:51:19.296Z,3.60
2018-09-10T03:53:48.088Z,3.37
2018-09-10T03:56:16.852Z,3.43
2018-09-10T03:58:45.472Z,3.40
2018-09-10T04:01:14.144Z,3.60
2018-09-10T04:03:42.796Z,3.40
2018-09-10T04:06:11.490Z,3.73
2018-09-10T04:08:40.154Z,3.40
2018-09-10T04:11:08.808Z,4.03
2018-09-10T04:13:37.446Z,3.60
2018-09-10T04:16:06.120Z,4.17
2018-09-10T04:18:34.780Z,5.00
2018-09-10T04:21:03.440Z,4.07
2018-09-10T04:23:32.109Z,3.50
2018-09-10T04:26:00.864Z,3.67
2018-09-10T04:28:29.523Z,3.90
2018-09-10T04:30:58.188Z,3.60
2018-09-10T04:33:26.999Z,3.57
2018-09-10T04:35:55.657Z,3.40
2018-09-10T04:38:24.401Z,4.07
2018-09-10T04:40:53.105Z,4.00
2018-09-10T04:43:21.824Z,3.30
2018-09-10T04:45:50.878Z,4.20
2018-09-10T04:48:19.699Z,4.30
2018-09-10T04:50:48.378Z,6.00
2018-09-10T04:53:17.071Z,4.47
2018-09-10T04:55:45.773Z,4.97
2018-09-10T04:58:14.612Z,3.70
2018-09-10T05:00:43.096Z,4.50
2018-09-10T05:03:11.768Z,4.50
2018-09-10T05:05:40.431Z,3.90
2018-09-10T05:08:09.171Z,4.20
2018-09-10T05:10:37.786Z,4.10
2018-09-10T05:13:06.447Z,4.27
2018-09-10T05:15:35.093Z,4.50
2018-09-10T05:18:03.740Z,3.90
2018-09-10T05:20:32.434Z,4.30
2018-09-10T05:23:01.102Z,4.90
2018-09-10T05:25:29.784Z,4.70
2018-09-10T05:27:58.447Z,4.77
2018-09-10T05:30:27.100Z,4.03
2018-09-10T05:32:55.804Z,4.30
2018-09-10T05:35:24.487Z,5.17
2018-09-10T05:37:53.507Z,4.43
2018-09-10T05:40:22.158Z,6.23
2018-09-10T05:42:50.858Z,4.37
2018-09-10T05:45:19.555Z,4.87
2018-09-10T05:47:48.782Z,4.67
2018-09-10T05:50:17.436Z,4.97
2018-09-10T05:52:46.280Z,5.23
2018-09-10T05:55:14.945Z,4.37
2018-09-10T05:57:43.616Z,3.40
2018-09-10T06:00:12.273Z,4.13
2018-09-10T06:02:40.950Z,3.23
2018-09-10T06:05:09.622Z,3.40
2018-09-10T06:07:38.400Z,3.30
2018-09-10T06:10:07.268Z,3.10
2018-09-10T06:12:35.951Z,3.30
2018-09-10T06:15:04.747Z,3.40
2018-09-10T06:17:33.374Z,3.20
2018-09-10T06:20:02.038Z,3.00
2018-09-10T06:22:30.719Z,2.87
2018-09-10T06:24:59.433Z,3.67
2018-09-10T06:27:28.069Z,3.20
2018-09-10T06:29:56.776Z,3.23
2018-09-10T06:32:25.787Z,3.10
2018-09-10T06:34:54.437Z,2.93
2018-09-10T06:37:23.126Z,3.07
2018-09-10T06:39:51.785Z,3.60
2018-09-10T06:42:20.471Z,3.87
2018-09-10T06:44:49.117Z,3.60
2018-09-10T06:47:17.810Z,3.23
2018-09-10T06:49:46.498Z,3.10
2018-09-10T06:52:15.157Z,2.77
2018-09-10T06:54:43.906Z,3.30
2018-09-10T06:57:12.555Z,2.67
2018-09-10T06:59:41.293Z,3.30
2018-09-10T07:02:09.916Z,3.23
2018-09-10T07:04:38.589Z,3.40
2018-09-10T07:07:07.314Z,3.40
2018-09-10T07:09:35.970Z,2.80
2018-09-10T07:12:04.632Z,3.30
2018-09-10T07:14:33.300Z,2.70
2018-09-10T07:17:01.940Z,2.90
2018-09-10T07:19:30.649Z,2.83
2018-09-10T07:21:59.501Z,3.50
2018-09-10T07:24:28.168Z,2.90
2018-09-10T07:26:56.828Z,2.40
2018-09-10T07:29:25.521Z,2.90
2018-09-10T07:31:54.184Z,2.80
2018-09-10T07:34:22.844Z,2.70
2018-09-10T07:36:51.558Z,3.07
2018-09-10T07:39:20.216Z,3.17
2018-09-10T07:41:48.882Z,2.60
2018-09-10T07:44:17.611Z,2.47
2018-09-10T07:46:46.240Z,2.93
2018-09-10T07:49:14.900Z,2.70
2018-09-10T07:51:43.556Z,2.47
2018-09-10T07:54:12.252Z,2.73
2018-09-10T07:56:40.940Z,2.90
2018-09-10T07:59:09.728Z,2.60
2018-09-10T08:01:38.686Z,2.20
2018-09-10T08:04:07.510Z,2.57
2018-09-10T08:06:36.423Z,1.73
2018-09-10T08:09:07.162Z,2.73
2018-09-10T08:11:35.822Z,2.13
2018-09-10T08:14:04.492Z,2.13
2018-09-10T08:16:33.186Z,2.07
2018-09-10T08:19:01.820Z,2.30
2018-09-10T08:21:30.487Z,2.30
2018-09-10T08:23:59.221Z,2.10
2018-09-10T08:26:27.864Z,2.33
2018-09-10T08:28:56.500Z,2.47
2018-09-10T08:31:25.190Z,2.53
2018-09-10T08:33:53.955Z,2.40
2018-09-10T08:36:22.637Z,2.20
2018-09-10T08:38:51.392Z,2.30
2018-09-10T08:41:20.073Z,2.33
2018-09-10T08:43:48.759Z,2.43
2018-09-10T08:46:17.563Z,2.40
2018-09-10T08:48:46.257Z,2.20
2018-09-10T08:51:14.899Z,2.43
2018-09-10T08:53:43.576Z,1.90
2018-09-10T08:56:12.509Z,2.00
2018-09-10T08:58:40.924Z,1.73
2018-09-10T09:01:09.591Z,1.70
2018-09-10T09:03:38.248Z,1.70
2018-09-10T09:06:06.931Z,1.50
2018-09-10T09:08:35.562Z,1.90
2018-09-10T09:11:04.248Z,1.70
2018-09-10T09:13:32.902Z,1.60
2018-09-10T09:16:01.619Z,1.63
2018-09-10T09:18:30.275Z,1.70
2018-09-10T09:20:58.921Z,1.70
2018-09-10T09:23:27.607Z,1.70
2018-09-10T09:25:56.264Z,1.60
2018-09-10T09:28:24.936Z,1.60
2018-09-10T09:30:53.613Z,1.53
2018-09-10T09:33:22.296Z,1.60
2018-09-10T09:35:56.355Z,1.80
2018-09-10T09:38:30.532Z,1.60
2018-09-10T09:41:04.674Z,1.57
2018-09-10T09:43:38.733Z,1.90
2018-09-10T09:46:10.786Z,1.50
2018-09-10T09:48:39.494Z,3.40
2018-09-10T09:51:08.219Z,2.03
2018-09-10T09:53:37.247Z,1.40
2018-09-10T09:56:05.938Z,2.97
2018-09-10T09:58:34.624Z,2.40
2018-09-10T10:01:08.649Z,1.40
2018-09-10T10:03:42.693Z,1.73
2018-09-10T10:06:11.382Z,1.80
2018-09-10T10:08:40.139Z,1.90
2018-09-10T10:11:08.843Z,1.53
2018-09-10T10:13:37.520Z,1.90
2018-09-10T10:16:06.183Z,3.03
2018-09-10T10:18:34.833Z,1.83
2018-09-10T10:21:03.515Z,1.80
2018-09-10T10:23:32.154Z,1.90
2018-09-10T10:26:00.839Z,2.03
2018-09-10T10:28:29.541Z,1.97
2018-09-10T10:30:58.464Z,1.77
2018-09-10T10:33:27.287Z,1.60
2018-09-10T10:35:55.955Z,2.13
2018-09-10T10:38:24.629Z,1.80
2018-09-10T10:40:53.273Z,1.80
2018-09-10T10:43:21.996Z,1.90
2018-09-10T10:45:50.676Z,1.90
2018-09-10T10:48:19.373Z,1.70
2018-09-10T10:50:48.051Z,1.80
2018-09-10T10:53:16.891Z,1.83
2018-09-10T10:55:45.520Z,1.97
2018-09-10T10:58:14.393Z,1.87
2018-09-10T11:00:43.070Z,1.80
2018-09-10T11:03:11.747Z,1.60
2018-09-10T11:05:40.449Z,2.00
2018-09-10T11:08:09.155Z,1.83
2018-09-10T11:10:37.863Z,1.90
2018-09-10T11:13:06.540Z,1.90
2018-09-10T11:15:35.251Z,5.00
2018-09-10T11:18:03.903Z,1.90
2018-09-10T11:20:32.613Z,1.90
2018-09-10T11:23:02.304Z,2.00
2018-09-10T11:25:30.986Z,1.70
2018-09-10T11:27:59.648Z,1.80
2018-09-10T11:30:28.324Z,2.07
2018-09-10T11:32:57.006Z,1.80
2018-09-10T11:35:25.702Z,1.63
2018-09-10T11:37:54.372Z,3.70
2018-09-10T11:40:23.059Z,1.70
2018-09-10T11:42:51.780Z,2.10
2018-09-10T11:45:20.426Z,1.50
2018-09-10T11:47:50.429Z,1.77
2018-09-10T11:50:19.113Z,2.50
2018-09-10T11:52:47.788Z,1.67
2018-09-10T11:55:16.436Z,2.93
2018-09-10T11:57:47.698Z,1.97
2018-09-10T12:00:16.348Z,1.77
2018-09-10T12:02:45.021Z,1.73
2018-09-10T12:05:13.648Z,1.80
2018-09-10T12:07:43.228Z,1.50
2018-09-10T12:10:11.980Z,1.53
2018-09-10T12:12:40.652Z,1.40
2018-09-10T12:15:09.000Z,1.80
2018-09-10T12:17:37.692Z,1.73
2018-09-10T12:20:06.347Z,1.60
2018-09-10T12:22:35.044Z,1.67
2018-09-10T12:25:03.706Z,1.53
2018-09-10T12:27:32.346Z,1.63
2018-09-10T12:30:01.045Z,1.60
2018-09-10T12:32:29.764Z,1.70
2018-09-10T12:34:58.352Z,1.70
2018-09-10T12:37:27.042Z,2.00
2018-09-10T12:39:55.727Z,1.70
2018-09-10T12:42:24.379Z,1.87
2018-09-10T12:44:53.068Z,1.70
2018-09-10T12:47:21.929Z,1.60
2018-09-10T12:49:50.588Z,1.90
2018-09-10T12:52:19.296Z,1.60
2018-09-10T12:54:47.967Z,1.67
2018-09-10T12:57:16.668Z,1.43
2018-09-10T13:02:30.112Z,1.30
2018-09-10T13:04:58.780Z,1.60
2018-09-10T13:07:27.432Z,2.00
2018-09-10T13:09:56.108Z,1.50
2018-09-10T13:12:24.805Z,1.70
2018-09-10T13:14:53.481Z,1.70
2018-09-10T13:17:22.216Z,1.90
2018-09-10T13:19:50.939Z,1.80
2018-09-10T13:22:19.591Z,1.73
2018-09-10T13:24:48.247Z,1.60
2018-09-10T13:27:16.899Z,1.50
2018-09-10T13:29:45.649Z,2.00
2018-09-10T13:32:14.223Z,1.57
2018-09-10T13:34:42.912Z,1.90
2018-09-10T13:37:11.593Z,2.10
2018-09-10T13:39:40.204Z,1.90
2018-09-10T13:42:08.864Z,1.80
2018-09-10T13:44:37.556Z,1.90
2018-09-10T13:47:06.264Z,1.70
2018-09-10T13:49:34.926Z,1.70
2018-09-10T13:52:03.604Z,1.57
2018-09-10T13:54:32.289Z,1.80
2018-09-10T13:57:00.953Z,1.60
2018-09-10T13:59:29.604Z,1.60
2018-09-10T14:01:58.254Z,1.83
2018-09-10T14:04:26.922Z,1.50
2018-09-10T14:06:55.592Z,1.77
2018-09-10T14:09:24.420Z,1.80
2018-09-10T14:11:53.190Z,2.10
2018-09-10T14:14:22.045Z,1.57
2018-09-10T14:16:50.820Z,1.30
2018-09-10T14:19:19.469Z,1.60
2018-09-10T14:21:48.186Z,1.60
2018-09-10T14:24:16.843Z,1.40
2018-09-10T14:26:45.517Z,1.67
2018-09-10T14:29:14.225Z,2.03
2018-09-10T14:31:42.877Z,1.60
2018-09-10T14:34:11.585Z,2.13
2018-09-10T14:36:40.211Z,2.20
2018-09-10T14:39:09.367Z,1.63
2018-09-10T14:41:38.056Z,1.47
2018-09-10T14:44:06.746Z,2.00
2018-09-10T14:46:35.451Z,1.80
2018-09-10T14:49:04.107Z,1.73
2018-09-10T14:51:32.824Z,1.53
2018-09-10T14:54:01.506Z,1.70
2018-09-10T14:56:30.156Z,1.43
2018-09-10T14:58:58.943Z,1.50
2018-09-10T15:01:27.602Z,1.30
2018-09-10T15:03:56.315Z,1.80
2018-09-10T15:06:24.963Z,1.50
2018-09-10T15:08:53.625Z,1.90
2018-09-10T15:11:22.279Z,1.63
2018-09-10T15:13:50.948Z,1.60
2018-09-10T15:16:19.691Z,1.77
2018-09-10T15:18:48.448Z,1.70
2018-09-10T15:21:17.009Z,1.80
2018-09-10T15:23:45.720Z,1.70
2018-09-10T15:26:14.404Z,1.40
2018-09-10T15:28:43.871Z,1.67
2018-09-10T15:31:12.728Z,1.50
2018-09-10T15:33:41.601Z,1.57
2018-09-10T15:36:10.361Z,2.37
2018-09-10T15:38:39.021Z,1.70
2018-09-10T15:41:08.215Z,1.97
2018-09-10T15:43:36.969Z,2.13
2018-09-10T15:46:05.663Z,1.77
2018-09-10T15:48:34.337Z,2.07
2018-09-10T15:51:03.056Z,1.70
2018-09-10T15:53:31.679Z,2.60
2018-09-10T15:56:00.333Z,1.90
2018-09-10T15:58:29.155Z,2.20
2018-09-10T16:00:57.942Z,2.00
2018-09-10T16:03:26.721Z,2.07
2018-09-10T16:05:55.447Z,2.37
2018-09-10T16:08:24.310Z,1.97
2018-09-10T16:10:53.144Z,2.10
2018-09-10T16:13:21.960Z,2.10
2018-09-10T16:15:50.793Z,2.60
2018-09-10T16:18:19.473Z,3.87
2018-09-10T16:20:48.126Z,1.97
2018-09-10T16:23:16.867Z,1.93
2018-09-10T16:25:45.516Z,2.90
2018-09-10T16:28:14.241Z,2.77
2018-09-10T16:30:43.012Z,1.83
2018-09-10T16:33:11.683Z,2.00
2018-09-10T16:35:40.505Z,1.80
2018-09-10T16:38:09.872Z,1.70
2018-09-10T16:40:38.570Z,1.80
2018-09-10T16:43:07.260Z,3.80
2018-09-10T16:45:35.943Z,2.60
2018-09-10T16:48:05.161Z,2.30
2018-09-10T16:50:33.952Z,1.80
2018-09-10T16:53:02.613Z,2.27
2018-09-10T16:55:31.298Z,2.43
2018-09-10T16:57:59.976Z,2.67
2018-09-10T17:00:28.617Z,2.00
2018-09-10T17:02:57.285Z,1.70
2018-09-10T17:05:25.969Z,2.10
2018-09-10T17:08:01.335Z,7.80
2018-09-10T17:10:30.023Z,7.63
2018-09-10T17:12:58.663Z,4.60
2018-09-10T17:15:27.310Z,5.53
2018-09-10T17:17:56.008Z,4.60
2018-09-10T17:20:24.720Z,4.60
2018-09-10T17:22:53.401Z,3.90
2018-09-10T17:25:22.042Z,3.17
2018-09-10T17:27:50.676Z,9.93
2018-09-10T17:30:19.367Z,8.27
2018-09-10T17:32:48.015Z,7.83
2018-09-10T17:35:16.709Z,6.27
2018-09-10T17:37:45.624Z,3.90
2018-09-10T17:40:14.414Z,5.47
2018-09-10T17:42:43.200Z,4.97
2018-09-10T17:45:11.873Z,4.17
2018-09-10T17:47:40.534Z,4.00
2018-09-10T17:50:09.237Z,4.33
2018-09-10T17:52:37.931Z,3.77
2018-09-10T17:55:06.572Z,4.83
2018-09-10T17:57:35.280Z,3.97
2018-09-10T18:00:03.984Z,4.20
2018-09-10T18:02:32.629Z,4.30
2018-09-10T18:05:01.325Z,3.40
2018-09-10T18:07:29.951Z,3.20
2018-09-10T18:09:58.610Z,2.80
2018-09-10T18:12:27.269Z,4.43
2018-09-10T18:14:55.946Z,2.50
2018-09-10T18:17:24.617Z,2.83
2018-09-10T18:19:53.263Z,2.33
2018-09-10T18:22:21.931Z,2.20
2018-09-10T18:24:50.665Z,2.80
2018-09-10T18:27:19.237Z,2.57
2018-09-10T18:29:47.928Z,2.50
2018-09-10T18:32:16.608Z,2.83
2018-09-10T18:34:45.274Z,2.80
2018-09-10T18:37:13.947Z,2.20
2018-09-10T18:39:42.617Z,2.43
2018-09-10T18:42:11.259Z,2.67
2018-09-10T18:44:39.923Z,2.67
2018-09-10T18:47:08.572Z,2.77
2018-09-10T18:49:37.244Z,2.83
2018-09-10T18:52:06.011Z,2.60
2018-09-10T18:54:34.668Z,3.00
2018-09-10T18:57:03.338Z,2.33
2018-09-10T18:59:32.095Z,1.93
2018-09-10T19:02:00.765Z,2.20
2018-09-10T19:04:29.424Z,2.30
2018-09-10T19:06:58.113Z,2.80
2018-09-10T19:09:26.794Z,2.30
2018-09-10T19:11:55.500Z,2.83
2018-09-10T19:14:24.158Z,3.00
2018-09-10T19:16:52.819Z,2.70
2018-09-10T19:19:21.492Z,2.90
2018-09-10T19:21:50.200Z,3.00
2018-09-10T19:24:19.020Z,2.47
2018-09-10T19:26:47.686Z,3.10
2018-09-10T19:29:16.341Z,2.57
2018-09-10T19:31:44.992Z,2.40
2018-09-10T19:34:13.648Z,3.23
2018-09-10T19:36:42.452Z,2.63
2018-09-10T19:39:11.906Z,2.50
2018-09-10T19:41:40.786Z,2.87
2018-09-10T19:44:09.481Z,3.10
2018-09-10T19:46:38.109Z,3.10
2018-09-10T19:49:06.750Z,2.93
2018-09-10T19:51:35.409Z,3.10
2018-09-10T19:54:04.087Z,3.57
2018-09-10T19:56:32.766Z,3.80
2018-09-10T19:59:01.671Z,2.70
2018-09-10T20:01:30.428Z,3.47
2018-09-10T20:03:59.081Z,2.87
2018-09-10T20:06:28.549Z,3.13
2018-09-10T20:08:57.200Z,2.97
2018-09-10T20:11:25.879Z,2.47
2018-09-10T20:13:54.537Z,2.57
2018-09-10T20:16:23.413Z,4.37
2018-09-10T20:18:52.130Z,2.80
2018-09-10T20:21:20.773Z,3.00
2018-09-10T20:23:49.455Z,2.67
2018-09-10T20:26:18.185Z,2.50
2018-09-10T20:28:46.813Z,3.10
2018-09-10T20:31:15.491Z,3.67
2018-09-10T20:33:49.497Z,3.57
2018-09-10T20:36:18.236Z,3.10
2018-09-10T20:38:46.979Z,2.60
2018-09-10T20:41:16.067Z,2.57
2018-09-10T20:43:44.711Z,2.60
2018-09-10T20:46:13.593Z,2.37
2018-09-10T20:48:42.384Z,2.57
2018-09-10T20:51:11.032Z,2.50
2018-09-10T20:53:39.718Z,3.40
2018-09-10T20:56:08.398Z,2.73
2018-09-10T20:58:37.060Z,3.33
2018-09-10T21:01:05.816Z,3.17
2018-09-10T21:03:34.482Z,3.43
2018-09-10T21:06:03.196Z,2.97
2018-09-10T21:08:31.886Z,3.23
2018-09-10T21:11:00.595Z,3.33
2018-09-10T21:13:29.206Z,2.90
2018-09-10T21:15:57.867Z,3.10
2018-09-10T21:18:26.988Z,3.53
2018-09-10T21:20:55.659Z,3.03
2018-09-10T21:23:24.330Z,3.00
2018-09-10T21:25:52.988Z,3.37
2018-09-10T21:28:21.674Z,3.63
2018-09-10T21:30:50.578Z,3.20
2018-09-10T21:33:19.246Z,3.60
2018-09-10T21:35:47.882Z,3.10
2018-09-10T21:38:17.108Z,3.27
2018-09-10T21:40:45.768Z,2.90
2018-09-10T21:43:14.478Z,2.93
2018-09-10T21:45:43.149Z,2.77
2018-09-10T21:48:11.773Z,2.83
2018-09-10T21:50:40.459Z,3.00
2018-09-10T21:53:09.136Z,2.80
2018-09-10T21:55:37.784Z,2.73
2018-09-10T21:58:06.677Z,2.90
2018-09-10T22:00:35.343Z,2.70
2018-09-10T22:03:04.047Z,2.93
2018-09-10T22:05:32.690Z,2.63
2018-09-10T22:08:01.385Z,3.00
2018-09-10T22:10:30.104Z,2.83
2018-09-10T22:12:58.717Z,4.00
2018-09-10T22:15:27.457Z,3.03
2018-09-10T22:17:56.222Z,3.10
2018-09-10T22:20:24.869Z,2.83
2018-09-10T22:22:53.528Z,2.67
2018-09-10T22:25:22.204Z,2.90
2018-09-10T22:27:50.854Z,2.60
2018-09-10T22:30:19.484Z,2.87
2018-09-10T22:32:49.099Z,2.93
2018-09-10T22:35:17.818Z,2.57
2018-09-10T22:37:46.510Z,2.77
2018-09-10T22:40:15.157Z,2.60
2018-09-10T22:42:43.831Z,3.13
2018-09-10T22:45:12.466Z,3.10
2018-09-10T22:47:41.198Z,3.10
2018-09-10T22:50:10.007Z,2.57
2018-09-10T22:52:38.990Z,2.93
2018-09-10T22:55:08.132Z,2.50
2018-09-10T22:57:36.800Z,2.87
2018-09-10T23:00:06.150Z,2.93
2018-09-10T23:02:34.802Z,2.83
2018-09-10T23:05:03.582Z,2.70
2018-09-10T23:07:32.262Z,3.00
2018-09-10T23:10:01.204Z,2.60
2018-09-10T23:12:29.864Z,2.43
2018-09-10T23:14:58.500Z,2.87
2018-09-10T23:17:27.194Z,2.43
2018-09-10T23:19:55.856Z,2.60
2018-09-10T23:22:24.514Z,2.60
2018-09-10T23:24:53.168Z,3.10
2018-09-10T23:27:21.822Z,2.43
2018-09-10T23:29:50.604Z,2.87
2018-09-10T23:32:19.566Z,2.70
2018-09-10T23:34:48.395Z,3.10
2018-09-10T23:37:17.174Z,2.50
2018-09-10T23:39:45.874Z,2.70
2018-09-10T23:42:14.508Z,2.60
2018-09-10T23:44:43.175Z,2.63
2018-09-10T23:47:11.784Z,2.67
2018-09-10T23:49:40.506Z,2.60
2018-09-10T23:52:09.113Z,2.70
2018-09-10T23:54:37.768Z,3.03
2018-09-10T23:57:06.400Z,2.70
2018-09-10T23:59:35.024Z,2.43
